Alderpoint, California
Current Conditions -  °F | °C
As of 2:10 AM on Wednesday 22 Oct 2014 (Local Time) from KFOT Reporting Station
Clear Clear  
Wind Chill: 55°   Ceiling: Unl
Heat Index: 55°   Visibility: 10mi
Dew Point: 48°   Wind: 13mph
Humidity: 77%   Direction: 130°SE
Pressure: 30.04"   Gusts: NA
Location:  40.18°N, 123.61°W
Report Text: KFOT 220910Z AUTO 13011KT 10SM CLR 13/09 A3004 RMK AO1
Loading
Personal Weather Stations






























Interactive Weather Map
Tropical Storm Tracking
New forecast layout! Learn more

10-Day Weather Forecast

Advertisements
Track Severe Weather on mobile